Eugenia, Canada
Current Conditions -  °F | °C
As of 12:00 PM on Thursday 23 Oct 2014 (Local Time) from CYBN Reporting Station
Clear Clear  
Wind Chill: 55°   Ceiling: Unl
Heat Index: 55°   Visibility: 9mi
Dew Point: 43°   Wind: 7mph
Humidity: 63%   Direction: 330°NNW
Pressure: 30.15"   Gusts: NA
Location:  44.32°N, 80.53°W
Report Text: CYBN 231600Z AUTO 33006KT 290V360 9SM CLR 13/06 A3015 RMKSLP216
Loading
Personal Weather Stations






























Interactive Weather Map
Tropical Storm Tracking
New forecast layout! Learn more

10-Day Weather Forecast

Advertisements
Track Severe Weather on mobile